sensor_id;sensor_type;location;lat;lon;timestamp;P1;durP1;ratioP1;P2;durP2;ratioP2
75667;SDS011;64266;48.798;44.756;2024-02-14T00:04:05;30.55;;;11.15;;
75667;SDS011;64266;48.798;44.756;2024-02-14T00:09:10;38.67;;;16.08;;
75667;SDS011;64266;48.798;44.756;2024-02-14T00:14:13;40.50;;;19.38;;
75667;SDS011;64266;48.798;44.756;2024-02-14T00:19:16;50.60;;;22.58;;
75667;SDS011;64266;48.798;44.756;2024-02-14T00:24:20;62.85;;;19.35;;
75667;SDS011;64266;48.798;44.756;2024-02-14T00:29:25;66.85;;;27.45;;
75667;SDS011;64266;48.798;44.756;2024-02-14T00:34:28;73.07;;;27.13;;
75667;SDS011;64266;48.798;44.756;2024-02-14T00:39:31;51.58;;;21.88;;
75667;SDS011;64266;48.798;44.756;2024-02-14T00:44:33;46.95;;;13.15;;
75667;SDS011;64266;48.798;44.756;2024-02-14T00:49:36;36.22;;;15.18;;
75667;SDS011;64266;48.798;44.756;2024-02-14T00:54:41;36.08;;;14.82;;
75667;SDS011;64266;48.798;44.756;2024-02-14T00:59:45;41.50;;;16.65;;
75667;SDS011;64266;48.798;44.756;2024-02-14T01:04:48;44.35;;;13.10;;
75667;SDS011;64266;48.798;44.756;2024-02-14T01:09:51;35.60;;;9.85;;
75667;SDS011;64266;48.798;44.756;2024-02-14T01:14:55;33.65;;;12.45;;
75667;SDS011;64266;48.798;44.756;2024-02-14T01:19:59;67.75;;;15.93;;
75667;SDS011;64266;48.798;44.756;2024-02-14T01:25:05;39.25;;;13.30;;
75667;SDS011;64266;48.798;44.756;2024-02-14T01:30:09;48.05;;;12.50;;
75667;SDS011;64266;48.798;44.756;2024-02-14T01:35:13;42.65;;;10.88;;
75667;SDS011;64266;48.798;44.756;2024-02-14T01:40:16;32.50;;;8.38;;
75667;SDS011;64266;48.798;44.756;2024-02-14T01:45:37;30.77;;;9.57;;
75667;SDS011;64266;48.798;44.756;2024-02-14T01:50:54;41.42;;;8.88;;
75667;SDS011;64266;48.798;44.756;2024-02-14T01:55:57;19.00;;;7.20;;
75667;SDS011;64266;48.798;44.756;2024-02-14T02:01:03;21.33;;;7.85;;
75667;SDS011;64266;48.798;44.756;2024-02-14T02:06:09;24.17;;;7.45;;
75667;SDS011;64266;48.798;44.756;2024-02-14T02:11:13;20.42;;;7.18;;
75667;SDS011;64266;48.798;44.756;2024-02-14T02:16:36;26.15;;;7.10;;
75667;SDS011;64266;48.798;44.756;2024-02-14T02:22:06;24.13;;;5.68;;
75667;SDS011;64266;48.798;44.756;2024-02-14T02:27:23;30.95;;;7.50;;
75667;SDS011;64266;48.798;44.756;2024-02-14T02:32:46;30.83;;;6.82;;
75667;SDS011;64266;48.798;44.756;2024-02-14T02:37:49;15.35;;;4.47;;
75667;SDS011;64266;48.798;44.756;2024-02-14T02:43:12;19.92;;;5.05;;
75667;SDS011;64266;48.798;44.756;2024-02-14T02:48:36;21.35;;;5.70;;
75667;SDS011;64266;48.798;44.756;2024-02-14T02:53:47;26.77;;;6.63;;
75667;SDS011;64266;48.798;44.756;2024-02-14T02:59:09;16.30;;;5.10;;
75667;SDS011;64266;48.798;44.756;2024-02-14T03:04:12;14.30;;;4.60;;
75667;SDS011;64266;48.798;44.756;2024-02-14T03:09:37;25.00;;;5.57;;
75667;SDS011;64266;48.798;44.756;2024-02-14T03:14:59;16.70;;;5.78;;
75667;SDS011;64266;48.798;44.756;2024-02-14T03:20:10;32.65;;;5.72;;
75667;SDS011;64266;48.798;44.756;2024-02-14T03:25:20;17.25;;;6.30;;
75667;SDS011;64266;48.798;44.756;2024-02-14T03:30:35;32.28;;;8.02;;
75667;SDS011;64266;48.798;44.756;2024-02-14T03:35:38;20.67;;;6.32;;
75667;SDS011;64266;48.798;44.756;2024-02-14T03:40:41;16.73;;;4.78;;
75667;SDS011;64266;48.798;44.756;2024-02-14T03:45:44;22.90;;;8.40;;
75667;SDS011;64266;48.798;44.756;2024-02-14T03:50:48;52.03;;;10.23;;
75667;SDS011;64266;48.798;44.756;2024-02-14T03:55:51;25.17;;;9.98;;
75667;SDS011;64266;48.798;44.756;2024-02-14T04:00:55;16.73;;;7.18;;
75667;SDS011;64266;48.798;44.756;2024-02-14T04:05:58;19.38;;;6.13;;
75667;SDS011;64266;48.798;44.756;2024-02-14T04:11:01;24.63;;;7.68;;
75667;SDS011;64266;48.798;44.756;2024-02-14T04:16:04;16.92;;;5.53;;
75667;SDS011;64266;48.798;44.756;2024-02-14T04:21:17;17.73;;;4.43;;
75667;SDS011;64266;48.798;44.756;2024-02-14T04:26:21;24.52;;;6.60;;
75667;SDS011;64266;48.798;44.756;2024-02-14T04:31:25;25.33;;;8.23;;
75667;SDS011;64266;48.798;44.756;2024-02-14T04:36:39;32.97;;;8.02;;
75667;SDS011;64266;48.798;44.756;2024-02-14T04:41:42;14.60;;;4.22;;
75667;SDS011;64266;48.798;44.756;2024-02-14T04:52:04;36.00;;;9.00;;
75667;SDS011;64266;48.798;44.756;2024-02-14T04:57:07;35.72;;;10.45;;
75667;SDS011;64266;48.798;44.756;2024-02-14T05:02:10;34.67;;;11.07;;
75667;SDS011;64266;48.798;44.756;2024-02-14T05:07:14;50.22;;;10.98;;
75667;SDS011;64266;48.798;44.756;2024-02-14T05:12:18;31.95;;;9.00;;
75667;SDS011;64266;48.798;44.756;2024-02-14T05:17:23;33.92;;;10.15;;
75667;SDS011;64266;48.798;44.756;2024-02-14T05:22:25;53.47;;;10.38;;
75667;SDS011;64266;48.798;44.756;2024-02-14T05:27:30;36.17;;;12.32;;
75667;SDS011;64266;48.798;44.756;2024-02-14T05:32:36;31.25;;;10.27;;
75667;SDS011;64266;48.798;44.756;2024-02-14T05:37:41;22.77;;;7.68;;
75667;SDS011;64266;48.798;44.756;2024-02-14T05:42:44;44.67;;;7.95;;
75667;SDS011;64266;48.798;44.756;2024-02-14T05:47:49;34.10;;;8.95;;
75667;SDS011;64266;48.798;44.756;2024-02-14T05:52:52;40.13;;;12.25;;
75667;SDS011;64266;48.798;44.756;2024-02-14T05:57:57;40.42;;;14.80;;
75667;SDS011;64266;48.798;44.756;2024-02-14T06:03:01;41.05;;;14.63;;
75667;SDS011;64266;48.798;44.756;2024-02-14T06:08:05;31.42;;;12.60;;
75667;SDS011;64266;48.798;44.756;2024-02-14T06:13:08;29.77;;;11.95;;
75667;SDS011;64266;48.798;44.756;2024-02-14T06:18:11;34.75;;;13.93;;
75667;SDS011;64266;48.798;44.756;2024-02-14T06:23:15;25.25;;;10.32;;
75667;SDS011;64266;48.798;44.756;2024-02-14T06:28:19;25.08;;;8.38;;
75667;SDS011;64266;48.798;44.756;2024-02-14T06:33:22;26.40;;;10.15;;
75667;SDS011;64266;48.798;44.756;2024-02-14T06:38:27;40.38;;;11.90;;
75667;SDS011;64266;48.798;44.756;2024-02-14T06:43:30;31.73;;;11.95;;
75667;SDS011;64266;48.798;44.756;2024-02-14T06:48:33;30.30;;;11.00;;
75667;SDS011;64266;48.798;44.756;2024-02-14T06:53:36;29.55;;;10.32;;
75667;SDS011;64266;48.798;44.756;2024-02-14T06:58:42;26.30;;;11.40;;
75667;SDS011;64266;48.798;44.756;2024-02-14T07:03:50;21.33;;;7.40;;
75667;SDS011;64266;48.798;44.756;2024-02-14T07:08:55;29.00;;;10.18;;
75667;SDS011;64266;48.798;44.756;2024-02-14T07:13:59;21.08;;;8.30;;
75667;SDS011;64266;48.798;44.756;2024-02-14T07:19:02;25.65;;;8.93;;
75667;SDS011;64266;48.798;44.756;2024-02-14T07:24:05;28.00;;;10.45;;
75667;SDS011;64266;48.798;44.756;2024-02-14T07:29:08;34.75;;;13.60;;
75667;SDS011;64266;48.798;44.756;2024-02-14T07:34:12;28.80;;;11.75;;
75667;SDS011;64266;48.798;44.756;2024-02-14T07:39:16;34.65;;;14.63;;
75667;SDS011;64266;48.798;44.756;2024-02-14T07:44:19;33.83;;;12.52;;
75667;SDS011;64266;48.798;44.756;2024-02-14T07:49:24;23.10;;;10.70;;
75667;SDS011;64266;48.798;44.756;2024-02-14T07:54:27;22.17;;;10.43;;
75667;SDS011;64266;48.798;44.756;2024-02-14T07:59:31;26.80;;;11.10;;
75667;SDS011;64266;48.798;44.756;2024-02-14T08:04:34;51.42;;;15.82;;
75667;SDS011;64266;48.798;44.756;2024-02-14T08:09:37;39.40;;;15.20;;
75667;SDS011;64266;48.798;44.756;2024-02-14T08:14:41;18.30;;;8.52;;
75667;SDS011;64266;48.798;44.756;2024-02-14T08:19:44;32.30;;;13.82;;
75667;SDS011;64266;48.798;44.756;2024-02-14T08:24:47;68.63;;;18.65;;
75667;SDS011;64266;48.798;44.756;2024-02-14T08:29:51;35.42;;;13.63;;
75667;SDS011;64266;48.798;44.756;2024-02-14T08:34:54;37.85;;;14.13;;
75667;SDS011;64266;48.798;44.756;2024-02-14T08:39:58;28.10;;;11.68;;
75667;SDS011;64266;48.798;44.756;2024-02-14T08:45:04;24.08;;;11.52;;
75667;SDS011;64266;48.798;44.756;2024-02-14T08:50:07;22.95;;;10.63;;
75667;SDS011;64266;48.798;44.756;2024-02-14T08:55:12;19.80;;;9.07;;
75667;SDS011;64266;48.798;44.756;2024-02-14T09:00:20;23.52;;;10.23;;
75667;SDS011;64266;48.798;44.756;2024-02-14T09:05:26;23.05;;;11.00;;
75667;SDS011;64266;48.798;44.756;2024-02-14T09:10:32;20.25;;;8.93;;
75667;SDS011;64266;48.798;44.756;2024-02-14T09:15:35;22.20;;;11.07;;
75667;SDS011;64266;48.798;44.756;2024-02-14T09:20:38;24.30;;;10.52;;
75667;SDS011;64266;48.798;44.756;2024-02-14T09:25:41;25.50;;;12.07;;
75667;SDS011;64266;48.798;44.756;2024-02-14T09:30:44;31.45;;;12.98;;
75667;SDS011;64266;48.798;44.756;2024-02-14T09:35:47;20.88;;;9.05;;
75667;SDS011;64266;48.798;44.756;2024-02-14T09:40:57;22.75;;;10.15;;
75667;SDS011;64266;48.798;44.756;2024-02-14T09:46:14;23.38;;;10.43;;
75667;SDS011;64266;48.798;44.756;2024-02-14T09:51:17;17.77;;;8.38;;
75667;SDS011;64266;48.798;44.756;2024-02-14T09:56:21;21.35;;;9.38;;
75667;SDS011;64266;48.798;44.756;2024-02-14T10:01:25;18.40;;;8.30;;
75667;SDS011;64266;48.798;44.756;2024-02-14T10:06:30;18.92;;;7.75;;
75667;SDS011;64266;48.798;44.756;2024-02-14T10:11:37;16.13;;;6.75;;
75667;SDS011;64266;48.798;44.756;2024-02-14T10:16:40;17.95;;;7.78;;
75667;SDS011;64266;48.798;44.756;2024-02-14T10:21:44;24.30;;;10.73;;
75667;SDS011;64266;48.798;44.756;2024-02-14T10:27:00;16.23;;;7.20;;
75667;SDS011;64266;48.798;44.756;2024-02-14T10:32:04;19.30;;;8.55;;
75667;SDS011;64266;48.798;44.756;2024-02-14T10:37:07;30.30;;;13.10;;
75667;SDS011;64266;48.798;44.756;2024-02-14T10:42:12;18.42;;;7.63;;
75667;SDS011;64266;48.798;44.756;2024-02-14T10:47:19;27.92;;;12.18;;
75667;SDS011;64266;48.798;44.756;2024-02-14T10:52:29;24.35;;;10.32;;
75667;SDS011;64266;48.798;44.756;2024-02-14T10:57:38;20.83;;;8.25;;
75667;SDS011;64266;48.798;44.756;2024-02-14T11:02:41;17.90;;;8.45;;
75667;SDS011;64266;48.798;44.756;2024-02-14T11:07:46;16.02;;;8.77;;
75667;SDS011;64266;48.798;44.756;2024-02-14T11:12:53;26.42;;;11.15;;
75667;SDS011;64266;48.798;44.756;2024-02-14T11:18:06;27.73;;;9.27;;
75667;SDS011;64266;48.798;44.756;2024-02-14T11:23:12;36.97;;;13.98;;
75667;SDS011;64266;48.798;44.756;2024-02-14T11:28:16;24.27;;;11.15;;
75667;SDS011;64266;48.798;44.756;2024-02-14T11:33:22;38.90;;;12.82;;
75667;SDS011;64266;48.798;44.756;2024-02-14T11:38:27;20.10;;;8.88;;
75667;SDS011;64266;48.798;44.756;2024-02-14T11:43:30;29.98;;;10.10;;
75667;SDS011;64266;48.798;44.756;2024-02-14T11:48:34;20.25;;;8.90;;
75667;SDS011;64266;48.798;44.756;2024-02-14T11:53:39;13.40;;;6.95;;
75667;SDS011;64266;48.798;44.756;2024-02-14T11:58:44;22.23;;;8.98;;
75667;SDS011;64266;48.798;44.756;2024-02-14T12:03:50;13.90;;;7.20;;
75667;SDS011;64266;48.798;44.756;2024-02-14T12:08:55;17.65;;;8.57;;
75667;SDS011;64266;48.798;44.756;2024-02-14T12:14:02;20.77;;;8.82;;
75667;SDS011;64266;48.798;44.756;2024-02-14T12:19:17;15.50;;;7.32;;
75667;SDS011;64266;48.798;44.756;2024-02-14T12:24:23;19.55;;;8.50;;
75667;SDS011;64266;48.798;44.756;2024-02-14T12:29:27;17.77;;;7.07;;
75667;SDS011;64266;48.798;44.756;2024-02-14T12:34:31;14.95;;;7.50;;
75667;SDS011;64266;48.798;44.756;2024-02-14T12:39:36;13.07;;;6.38;;
75667;SDS011;64266;48.798;44.756;2024-02-14T12:44:43;17.88;;;8.40;;
75667;SDS011;64266;48.798;44.756;2024-02-14T12:49:47;18.13;;;8.13;;
75667;SDS011;64266;48.798;44.756;2024-02-14T12:54:51;13.73;;;6.68;;
75667;SDS011;64266;48.798;44.756;2024-02-14T12:59:55;11.10;;;5.13;;
75667;SDS011;64266;48.798;44.756;2024-02-14T13:05:00;12.23;;;6.00;;
75667;SDS011;64266;48.798;44.756;2024-02-14T13:10:10;15.88;;;6.88;;
75667;SDS011;64266;48.798;44.756;2024-02-14T13:15:14;12.45;;;6.07;;
75667;SDS011;64266;48.798;44.756;2024-02-14T13:20:19;15.00;;;7.35;;
75667;SDS011;64266;48.798;44.756;2024-02-14T13:25:23;14.77;;;7.22;;
75667;SDS011;64266;48.798;44.756;2024-02-14T13:30:26;14.02;;;6.78;;
75667;SDS011;64266;48.798;44.756;2024-02-14T13:35:30;26.65;;;12.32;;
75667;SDS011;64266;48.798;44.756;2024-02-14T13:40:36;18.13;;;7.82;;
75667;SDS011;64266;48.798;44.756;2024-02-14T13:45:40;15.32;;;7.43;;
75667;SDS011;64266;48.798;44.756;2024-02-14T13:50:48;18.50;;;7.03;;
75667;SDS011;64266;48.798;44.756;2024-02-14T13:55:51;12.88;;;6.55;;
75667;SDS011;64266;48.798;44.756;2024-02-14T14:00:55;10.77;;;5.32;;
75667;SDS011;64266;48.798;44.756;2024-02-14T14:05:58;15.30;;;6.63;;
75667;SDS011;64266;48.798;44.756;2024-02-14T14:11:04;14.15;;;5.95;;
75667;SDS011;64266;48.798;44.756;2024-02-14T14:16:08;16.17;;;7.18;;
75667;SDS011;64266;48.798;44.756;2024-02-14T14:21:13;15.88;;;7.05;;
75667;SDS011;64266;48.798;44.756;2024-02-14T14:26:22;17.00;;;6.72;;
75667;SDS011;64266;48.798;44.756;2024-02-14T14:31:25;15.45;;;6.32;;
75667;SDS011;64266;48.798;44.756;2024-02-14T14:36:31;13.25;;;5.72;;
75667;SDS011;64266;48.798;44.756;2024-02-14T14:41:36;12.88;;;6.18;;
75667;SDS011;64266;48.798;44.756;2024-02-14T14:46:39;14.57;;;6.35;;
75667;SDS011;64266;48.798;44.756;2024-02-14T14:51:44;11.48;;;5.15;;
75667;SDS011;64266;48.798;44.756;2024-02-14T14:57:12;10.32;;;5.53;;
75667;SDS011;64266;48.798;44.756;2024-02-14T15:02:18;17.52;;;5.82;;
75667;SDS011;64266;48.798;44.756;2024-02-14T15:07:21;10.80;;;4.13;;
75667;SDS011;64266;48.798;44.756;2024-02-14T15:12:25;12.07;;;5.50;;
75667;SDS011;64266;48.798;44.756;2024-02-14T15:17:30;10.80;;;4.72;;
75667;SDS011;64266;48.798;44.756;2024-02-14T15:22:33;10.35;;;4.20;;
75667;SDS011;64266;48.798;44.756;2024-02-14T15:27:37;12.98;;;5.30;;
75667;SDS011;64266;48.798;44.756;2024-02-14T15:32:47;11.63;;;5.28;;
75667;SDS011;64266;48.798;44.756;2024-02-14T15:38:08;11.82;;;5.03;;
75667;SDS011;64266;48.798;44.756;2024-02-14T15:43:13;12.38;;;4.95;;
75667;SDS011;64266;48.798;44.756;2024-02-14T15:48:16;10.40;;;4.85;;
75667;SDS011;64266;48.798;44.756;2024-02-14T15:53:19;11.07;;;5.07;;
75667;SDS011;64266;48.798;44.756;2024-02-14T15:58:23;11.57;;;4.53;;
75667;SDS011;64266;48.798;44.756;2024-02-14T16:03:28;10.55;;;4.60;;
75667;SDS011;64266;48.798;44.756;2024-02-14T16:08:31;7.32;;;3.67;;
75667;SDS011;64266;48.798;44.756;2024-02-14T16:13:36;10.38;;;3.92;;
75667;SDS011;64266;48.798;44.756;2024-02-14T16:18:39;7.75;;;2.95;;
75667;SDS011;64266;48.798;44.756;2024-02-14T16:23:43;8.77;;;3.65;;
75667;SDS011;64266;48.798;44.756;2024-02-14T16:28:45;9.20;;;3.50;;
75667;SDS011;64266;48.798;44.756;2024-02-14T16:33:50;13.32;;;4.13;;
75667;SDS011;64266;48.798;44.756;2024-02-14T16:38:56;5.80;;;2.28;;
75667;SDS011;64266;48.798;44.756;2024-02-14T16:44:00;8.85;;;3.45;;
75667;SDS011;64266;48.798;44.756;2024-02-14T16:49:03;7.68;;;3.25;;
75667;SDS011;64266;48.798;44.756;2024-02-14T16:54:08;11.18;;;4.47;;
75667;SDS011;64266;48.798;44.756;2024-02-14T16:59:10;9.85;;;4.43;;
75667;SDS011;64266;48.798;44.756;2024-02-14T17:04:15;11.00;;;3.70;;
75667;SDS011;64266;48.798;44.756;2024-02-14T17:09:19;10.15;;;4.15;;
75667;SDS011;64266;48.798;44.756;2024-02-14T17:14:23;12.02;;;5.18;;
75667;SDS011;64266;48.798;44.756;2024-02-14T17:19:28;9.85;;;4.30;;
75667;SDS011;64266;48.798;44.756;2024-02-14T17:24:33;9.30;;;3.65;;
75667;SDS011;64266;48.798;44.756;2024-02-14T17:29:37;8.88;;;3.63;;
75667;SDS011;64266;48.798;44.756;2024-02-14T17:34:41;6.10;;;2.60;;
75667;SDS011;64266;48.798;44.756;2024-02-14T17:39:44;9.73;;;4.53;;
75667;SDS011;64266;48.798;44.756;2024-02-14T17:44:48;9.38;;;3.67;;
75667;SDS011;64266;48.798;44.756;2024-02-14T17:49:52;7.38;;;2.92;;
75667;SDS011;64266;48.798;44.756;2024-02-14T17:54:56;6.22;;;2.88;;
75667;SDS011;64266;48.798;44.756;2024-02-14T18:00:04;9.10;;;3.60;;
75667;SDS011;64266;48.798;44.756;2024-02-14T18:05:15;7.43;;;3.45;;
75667;SDS011;64266;48.798;44.756;2024-02-14T18:10:23;9.32;;;3.40;;
75667;SDS011;64266;48.798;44.756;2024-02-14T18:15:26;12.00;;;5.80;;
75667;SDS011;64266;48.798;44.756;2024-02-14T18:20:32;11.55;;;4.53;;
75667;SDS011;64266;48.798;44.756;2024-02-14T18:25:38;13.77;;;4.95;;
75667;SDS011;64266;48.798;44.756;2024-02-14T18:30:42;14.85;;;4.93;;
75667;SDS011;64266;48.798;44.756;2024-02-14T18:35:47;12.63;;;5.25;;
75667;SDS011;64266;48.798;44.756;2024-02-14T18:40:51;12.18;;;4.50;;
75667;SDS011;64266;48.798;44.756;2024-02-14T18:45:54;13.43;;;4.88;;
75667;SDS011;64266;48.798;44.756;2024-02-14T18:50:58;10.35;;;4.75;;
75667;SDS011;64266;48.798;44.756;2024-02-14T18:56:00;13.50;;;4.32;;
75667;SDS011;64266;48.798;44.756;2024-02-14T19:01:05;13.63;;;4.50;;
75667;SDS011;64266;48.798;44.756;2024-02-14T19:06:10;7.55;;;3.42;;
75667;SDS011;64266;48.798;44.756;2024-02-14T19:11:14;8.95;;;4.07;;
75667;SDS011;64266;48.798;44.756;2024-02-14T19:16:18;9.25;;;4.38;;
75667;SDS011;64266;48.798;44.756;2024-02-14T19:21:33;13.70;;;5.18;;
75667;SDS011;64266;48.798;44.756;2024-02-14T19:26:39;8.82;;;3.42;;
75667;SDS011;64266;48.798;44.756;2024-02-14T19:31:43;12.02;;;3.92;;
75667;SDS011;64266;48.798;44.756;2024-02-14T19:36:47;16.60;;;5.15;;
75667;SDS011;64266;48.798;44.756;2024-02-14T19:41:51;8.57;;;3.80;;
75667;SDS011;64266;48.798;44.756;2024-02-14T19:46:53;8.48;;;3.78;;
75667;SDS011;64266;48.798;44.756;2024-02-14T19:51:57;12.35;;;4.00;;
75667;SDS011;64266;48.798;44.756;2024-02-14T19:57:00;9.13;;;3.50;;
75667;SDS011;64266;48.798;44.756;2024-02-14T20:02:04;13.02;;;5.35;;
75667;SDS011;64266;48.798;44.756;2024-02-14T20:07:09;7.53;;;3.78;;
75667;SDS011;64266;48.798;44.756;2024-02-14T20:12:12;9.32;;;4.53;;
75667;SDS011;64266;48.798;44.756;2024-02-14T20:17:14;11.40;;;5.80;;
75667;SDS011;64266;48.798;44.756;2024-02-14T20:22:18;12.82;;;6.13;;
75667;SDS011;64266;48.798;44.756;2024-02-14T20:27:22;9.23;;;4.32;;
75667;SDS011;64266;48.798;44.756;2024-02-14T20:32:27;9.65;;;4.63;;
75667;SDS011;64266;48.798;44.756;2024-02-14T20:37:30;10.25;;;4.13;;
75667;SDS011;64266;48.798;44.756;2024-02-14T20:42:33;11.88;;;5.60;;
75667;SDS011;64266;48.798;44.756;2024-02-14T20:47:37;11.75;;;5.00;;
75667;SDS011;64266;48.798;44.756;2024-02-14T20:52:41;12.10;;;5.60;;
75667;SDS011;64266;48.798;44.756;2024-02-14T20:57:45;11.98;;;5.35;;
75667;SDS011;64266;48.798;44.756;2024-02-14T21:02:49;7.72;;;3.28;;
75667;SDS011;64266;48.798;44.756;2024-02-14T21:07:53;10.52;;;5.03;;
75667;SDS011;64266;48.798;44.756;2024-02-14T21:12:56;11.02;;;4.85;;
75667;SDS011;64266;48.798;44.756;2024-02-14T21:18:02;10.02;;;3.55;;
75667;SDS011;64266;48.798;44.756;2024-02-14T21:23:08;8.43;;;4.82;;
75667;SDS011;64266;48.798;44.756;2024-02-14T21:28:11;9.35;;;4.40;;
75667;SDS011;64266;48.798;44.756;2024-02-14T21:33:14;12.32;;;3.83;;
75667;SDS011;64266;48.798;44.756;2024-02-14T21:38:17;9.13;;;4.03;;
75667;SDS011;64266;48.798;44.756;2024-02-14T21:43:21;11.07;;;4.03;;
75667;SDS011;64266;48.798;44.756;2024-02-14T21:48:24;11.98;;;5.43;;
75667;SDS011;64266;48.798;44.756;2024-02-14T21:53:27;11.02;;;5.45;;
75667;SDS011;64266;48.798;44.756;2024-02-14T21:58:30;8.43;;;3.20;;
75667;SDS011;64266;48.798;44.756;2024-02-14T22:03:33;9.25;;;3.85;;
75667;SDS011;64266;48.798;44.756;2024-02-14T22:08:36;8.48;;;3.60;;
75667;SDS011;64266;48.798;44.756;2024-02-14T22:13:39;11.70;;;4.75;;
75667;SDS011;64266;48.798;44.756;2024-02-14T22:18:43;9.30;;;3.70;;
75667;SDS011;64266;48.798;44.756;2024-02-14T22:23:48;9.20;;;3.75;;
75667;SDS011;64266;48.798;44.756;2024-02-14T22:28:50;7.60;;;3.20;;
75667;SDS011;64266;48.798;44.756;2024-02-14T22:33:55;10.23;;;3.45;;
75667;SDS011;64266;48.798;44.756;2024-02-14T22:38:58;13.25;;;4.78;;
75667;SDS011;64266;48.798;44.756;2024-02-14T22:44:02;12.90;;;5.32;;
75667;SDS011;64266;48.798;44.756;2024-02-14T22:49:07;7.80;;;3.38;;
75667;SDS011;64266;48.798;44.756;2024-02-14T22:54:10;11.00;;;4.28;;
75667;SDS011;64266;48.798;44.756;2024-02-14T22:59:13;11.63;;;4.50;;
75667;SDS011;64266;48.798;44.756;2024-02-14T23:04:16;8.57;;;3.97;;
75667;SDS011;64266;48.798;44.756;2024-02-14T23:09:19;11.38;;;4.93;;
75667;SDS011;64266;48.798;44.756;2024-02-14T23:14:22;12.30;;;4.78;;
75667;SDS011;64266;48.798;44.756;2024-02-14T23:19:26;12.52;;;4.90;;
75667;SDS011;64266;48.798;44.756;2024-02-14T23:24:31;12.10;;;4.40;;
75667;SDS011;64266;48.798;44.756;2024-02-14T23:29:35;9.23;;;4.57;;
75667;SDS011;64266;48.798;44.756;2024-02-14T23:34:38;8.32;;;3.63;;
75667;SDS011;64266;48.798;44.756;2024-02-14T23:39:43;8.20;;;3.53;;
75667;SDS011;64266;48.798;44.756;2024-02-14T23:44:46;7.80;;;3.95;;
75667;SDS011;64266;48.798;44.756;2024-02-14T23:49:49;12.77;;;4.75;;
75667;SDS011;64266;48.798;44.756;2024-02-14T23:54:52;10.35;;;2.88;;
75667;SDS011;64266;48.798;44.756;2024-02-14T23:59:56;8.65;;;3.58;;
